LFSI 221030Z AUTO 07014KT CAVOK 02/M06 Q1016

ElémentsDécodage
LFSI Station météo située sur l'aérodrome de SAINT-DIZIER Robinson
221030Z émis le 22 du mois à 10h30 UTC
AUTO Bulletin édité par un automate
07014KT vent du 070°, 14 noeuds
CAVOK Ceiling And Visibility OK
- Visibilité de 10 Km ou plus
- Pas de nuage au-dessous de 1500m ou au-dessous de l'altitude minimale du secteur la plus élevée (si>1500m) et absence de CB
- pas de temps présent significatif
02/M06 température 02°C, point de rosée -06°C
 soit une humidité relative de 55%
Q1016 la pression au niveau de la mer (QNH) est de 1016 hPa